Time;durP1;ratioP1;P1;durP2;ratioP2;P2;SDS_P1;SDS_P2;PMS_P1;PMS_P2;Temp;Humidity;BMP_temperature;BMP_pressure;BME280_temperature;BME280_humidity;BME280_pressure;Samples;Min_cycle;Max_cycle;Signal;HPM_P1;HPM_P2
2022/12/11 00:01:23;;;;;;;28.23;12.35;;;;;;;9.49;98.64;96714.98;1602363;88;21070;-80
2022/12/11 00:03:50;;;;;;;25.30;12.35;;;;;;;9.47;98.56;96705.16;1602411;88;21601;-78
2022/12/11 00:06:22;;;;;;;25.80;11.65;;;;;;;9.46;98.82;96709.14;1608125;88;21640;-75
2022/12/11 00:08:54;;;;;;;22.95;11.80;;;;;;;9.47;98.40;96691.34;1620685;88;22326;-77
2022/12/11 00:11:22;;;;;;;23.77;12.00;;;;;;;9.45;98.44;96691.89;1607340;88;21093;-77
2022/12/11 00:13:50;;;;;;;24.05;11.22;;;;;;;9.47;98.45;96682.27;1621926;88;21062;-76
2022/12/11 00:16:18;;;;;;;25.60;12.93;;;;;;;9.44;99.40;96682.46;1609023;88;21946;-77
2022/12/11 00:18:45;;;;;;;24.05;12.43;;;;;;;9.45;99.35;96681.08;1616248;88;21022;-77
2022/12/11 00:21:14;;;;;;;27.90;12.03;;;;;;;9.47;99.51;96682.27;1598243;89;21030;-75
2022/12/11 00:23:42;;;;;;;28.17;12.30;;;;;;;9.41;98.77;96647.18;1598154;89;21011;-76
2022/12/11 00:26:13;;;;;;;25.80;12.75;;;;;;;9.50;98.98;96656.16;1598269;89;21091;-75
2022/12/11 00:28:41;;;;;;;24.30;12.07;;;;;;;9.49;98.85;96650.59;1598257;89;21058;-76
2022/12/11 00:31:14;;;;;;;21.37;10.95;;;;;;;9.52;98.35;96662.09;1598352;90;21541;-77
2022/12/11 00:33:44;;;;;;;24.50;10.68;;;;;;;9.49;98.77;96666.15;1597905;89;21018;-78
2022/12/11 00:36:21;;;;;;;26.37;11.78;;;;;;;9.48;99.15;96661.43;1598201;89;21034;-78
2022/12/11 00:38:50;;;;;;;24.20;11.25;;;;;;;9.50;98.91;96644.02;1598333;89;21021;-79
2022/12/11 00:41:18;;;;;;;22.55;11.30;;;;;;;9.51;99.25;96646.14;1597988;89;21042;-76
2022/12/11 00:43:46;;;;;;;21.30;9.85;;;;;;;9.53;98.82;96646.44;1597175;89;21069;-76
2022/12/11 00:46:14;;;;;;;24.15;11.68;;;;;;;9.57;99.20;96645.80;1610961;88;21635;-76
2022/12/11 00:48:42;;;;;;;22.65;11.30;;;;;;;9.58;99.17;96631.89;1610229;88;21097;-76
2022/12/11 00:51:10;;;;;;;21.50;10.72;;;;;;;9.61;99.34;96623.94;1618867;88;21593;-77
2022/12/11 00:53:38;;;;;;;27.15;11.63;;;;;;;9.62;99.25;96620.88;1597474;88;21038;-76
2022/12/11 00:56:15;;;;;;;25.95;11.20;;;;;;;9.65;98.95;96620.23;1613827;88;21042;-76
2022/12/11 00:58:43;;;;;;;19.80;10.00;;;;;;;9.67;99.23;96616.22;1600263;88;21042;-76
2022/12/11 01:01:15;;;;;;;17.52;9.28;;;;;;;9.69;98.59;96603.55;1614152;88;20994;-77
2022/12/11 01:03:43;;;;;;;18.05;9.38;;;;;;;9.68;99.05;96597.14;1602296;88;21499;-76
2022/12/11 01:06:15;;;;;;;22.85;10.65;;;;;;;9.72;98.98;96592.13;1612907;88;21494;-76
2022/12/11 01:08:43;;;;;;;18.60;9.90;;;;;;;9.74;99.01;96597.59;1599350;88;21164;-76
2022/12/11 01:11:14;;;;;;;20.10;10.08;;;;;;;9.80;99.17;96602.88;1597036;89;21062;-77
2022/12/11 01:13:43;;;;;;;21.15;10.80;;;;;;;9.84;98.84;96598.33;1596918;89;21097;-76
2022/12/11 01:16:14;;;;;;;23.02;9.80;;;;;;;9.87;99.11;96597.69;1596878;89;21161;-76
2022/12/11 01:18:43;;;;;;;21.02;10.65;;;;;;;9.91;98.57;96590.55;1596795;89;21078;-76
2022/12/11 01:21:12;;;;;;;21.10;9.33;;;;;;;9.88;98.28;96595.91;1596836;89;21038;-76
2022/12/11 01:23:40;;;;;;;26.30;10.95;;;;;;;9.89;98.87;96585.92;1596690;89;22224;-77
2022/12/11 01:26:11;;;;;;;24.57;11.53;;;;;;;9.98;98.83;96577.53;1596835;89;21077;-76
2022/12/11 01:28:40;;;;;;;25.68;11.63;;;;;;;9.97;98.63;96582.38;1596467;89;21081;-76
2022/12/11 01:31:10;;;;;;;29.90;11.12;;;;;;;10.01;98.61;96572.61;1596751;89;21082;-76
2022/12/11 01:33:39;;;;;;;25.82;11.55;;;;;;;10.01;98.50;96577.36;1596589;89;21609;-77
2022/12/11 01:36:15;;;;;;;23.07;9.68;;;;;;;10.05;98.53;96578.83;1596717;89;21073;-77
2022/12/11 01:38:44;;;;;;;20.20;9.90;;;;;;;10.04;98.26;96569.83;1596698;89;21990;-76
2022/12/11 01:41:13;;;;;;;23.40;10.68;;;;;;;10.03;98.26;96561.22;1596628;89;21097;-76
2022/12/11 01:44:06;;;;;;;22.82;11.45;;;;;;;10.06;98.50;96551.92;1596422;89;21069;-76
2022/12/11 01:46:35;;;;;;;24.18;11.73;;;;;;;10.11;98.54;96551.66;1603996;88;21042;-78
2022/12/11 01:49:07;;;;;;;26.52;11.60;;;;;;;10.08;97.87;96541.45;1619594;88;21061;-76
2022/12/11 01:51:55;;;;;;;27.87;11.33;;;;;;;10.06;97.94;96547.20;1604779;88;21097;-76
2022/12/11 01:54:25;;;;;;;25.20;12.15;;;;;;;10.04;97.69;96530.42;1616714;88;21130;-76
2022/12/11 01:56:57;;;;;;;28.73;12.43;;;;;;;9.99;97.57;96519.95;1602958;88;21105;-76
2022/12/11 01:59:28;;;;;;;24.77;11.75;;;;;;;9.97;97.91;96525.27;1621480;88;22253;-76
2022/12/11 02:02:13;;;;;;;21.62;10.45;;;;;;;9.99;97.83;96511.73;1598232;88;21022;-76
2022/12/11 02:04:43;;;;;;;37.80;14.60;;;;;;;9.98;97.75;96507.45;1613574;88;21539;-76
2022/12/11 02:07:11;;;;;;;30.15;14.05;;;;;;;9.98;97.96;96511.83;1601407;88;21046;-76
2022/12/11 02:09:42;;;;;;;46.98;17.37;;;;;;;9.99;98.06;96501.80;1613509;88;21069;-76
2022/12/11 02:12:24;;;;;;;22.77;9.83;;;;;;;10.02;98.06;96507.63;1603363;88;21133;-76
2022/12/11 02:15:18;;;;;;;21.97;9.05;;;;;;;9.97;97.90;96495.42;1613165;88;21066;-76
2022/12/11 02:18:17;;;;;;;14.75;8.20;;;;;;;9.98;98.17;96502.27;1602607;88;21606;-76
2022/12/11 02:20:59;;;;;;;17.12;7.62;;;;;;;10.03;98.28;96500.22;1618863;88;21102;-76
2022/12/11 02:23:43;;;;;;;19.20;8.18;;;;;;;10.04;98.72;96487.59;1601229;88;21097;-77
2022/12/11 02:26:46;;;;;;;23.62;7.90;;;;;;;10.08;98.79;96483.86;1607262;88;21129;-76
2022/12/11 02:29:57;;;;;;;17.82;8.33;;;;;;;10.11;99.29;96481.56;1622377;88;21082;-74
2022/12/11 02:32:42;;;;;;;24.05;9.23;;;;;;;10.14;98.68;96481.34;1607528;88;21129;-76
2022/12/11 02:35:15;;;;;;;17.75;7.10;;;;;;;10.16;98.46;96480.30;1612832;88;21637;-76
2022/12/11 02:37:46;;;;;;;17.30;6.97;;;;;;;10.17;98.97;96468.17;1571777;90;21074;-76
2022/12/11 02:40:18;;;;;;;11.83;6.05;;;;;;;10.19;98.91;96466.78;1600440;88;21621;-76
2022/12/11 02:42:48;;;;;;;15.48;6.33;;;;;;;10.22;99.55;96459.60;1599036;89;21128;-77
2022/12/11 02:45:17;;;;;;;17.73;6.50;;;;;;;10.26;98.94;96453.27;1607718;88;21045;-75
2022/12/11 02:47:47;;;;;;;11.03;5.03;;;;;;;10.30;98.88;96440.95;1606492;88;21067;-76
2022/12/11 02:50:19;;;;;;;9.40;4.28;;;;;;;10.33;99.32;96440.77;1598245;89;21042;-76
2022/12/11 02:52:50;;;;;;;14.60;5.87;;;;;;;10.39;99.57;96437.76;1607521;89;21142;-77
2022/12/11 02:55:18;;;;;;;9.63;4.25;;;;;;;10.44;99.80;96429.17;1610631;89;21050;-76
2022/12/11 02:58:00;;;;;;;7.58;3.55;;;;;;;10.52;100.00;96425.62;1586928;90;21067;-76
2022/12/11 03:00:30;;;;;;;9.10;3.42;;;;;;;10.68;99.62;96415.46;1593715;89;21054;-76
2022/12/11 03:02:58;;;;;;;6.33;2.90;;;;;;;10.82;99.53;96421.84;1610078;88;21126;-75
2022/12/11 03:05:26;;;;;;;6.00;2.80;;;;;;;10.96;99.67;96414.39;1582703;89;21078;-76
2022/12/11 03:07:55;;;;;;;6.87;3.02;;;;;;;11.11;99.00;96413.33;1603079;89;21066;-76
2022/12/11 03:10:23;;;;;;;8.53;2.85;;;;;;;11.25;98.64;96411.06;1585647;89;21066;-76
2022/12/11 03:12:54;;;;;;;5.15;2.25;;;;;;;11.37;98.28;96419.77;1601831;89;21026;-76
2022/12/11 03:15:29;;;;;;;7.67;2.80;;;;;;;11.45;97.74;96409.64;1595613;89;21649;-77
2022/12/11 03:18:14;;;;;;;7.50;2.75;;;;;;;11.51;97.41;96417.48;1614182;88;21078;-76
2022/12/11 03:20:49;;;;;;;5.87;2.80;;;;;;;11.56;97.00;96412.80;1589590;88;21070;-76
2022/12/11 03:23:33;;;;;;;7.97;3.37;;;;;;;11.63;97.05;96405.37;1597335;89;21557;-76
2022/12/11 03:26:05;;;;;;;5.60;3.30;;;;;;;11.66;96.19;96404.68;1614062;88;21931;-76
2022/12/11 03:28:58;;;;;;;5.28;2.30;;;;;;;11.73;96.12;96394.17;1614939;89;21027;-76
2022/12/11 03:31:38;;;;;;;6.42;2.85;;;;;;;11.78;95.40;96399.50;1598063;89;21359;-76
2022/12/11 03:34:11;;;;;;;6.90;2.08;;;;;;;11.85;95.80;96387.72;1610807;89;21129;-76
2022/12/11 03:36:41;;;;;;;5.58;2.30;;;;;;;11.86;94.80;96386.78;1583482;90;21669;-76
2022/12/11 03:39:14;;;;;;;5.12;2.20;;;;;;;11.90;94.78;96379.97;1588900;90;21117;-76
2022/12/11 03:41:44;;;;;;;3.40;1.65;;;;;;;11.96;94.37;96368.72;1547315;91;21600;-76
2022/12/11 03:44:13;;;;;;;5.62;2.00;;;;;;;12.02;93.33;96367.81;1549001;91;21122;-74
2022/12/11 03:46:44;;;;;;;8.48;1.80;;;;;;;12.06;93.23;96364.03;1592223;89;20995;-76
2022/12/11 03:49:22;;;;;;;2.15;1.37;;;;;;;12.12;92.97;96363.57;1599100;88;21026;-76
2022/12/11 03:51:51;;;;;;;6.33;1.95;;;;;;;12.15;93.00;96358.59;1590879;90;21038;-76
2022/12/11 03:54:19;;;;;;;8.35;2.35;;;;;;;12.17;92.80;96360.61;1598494;90;21491;-76
2022/12/11 03:56:50;;;;;;;6.87;2.58;;;;;;;12.19;92.35;96365.23;1591983;90;21014;-76
2022/12/11 03:59:17;;;;;;;8.15;2.33;;;;;;;12.25;93.11;96354.83;1588714;90;21035;-76
2022/12/11 04:01:45;;;;;;;8.28;2.33;;;;;;;12.26;91.74;96363.84;1581728;89;21054;-77
2022/12/11 04:04:12;;;;;;;4.20;2.12;;;;;;;12.29;92.49;96367.50;1594658;90;21045;-76
2022/12/11 04:06:40;;;;;;;14.60;4.40;;;;;;;12.31;91.91;96370.84;1591329;89;21035;-77
2022/12/11 04:09:08;;;;;;;5.53;2.45;;;;;;;12.35;92.17;96364.91;1595451;89;21098;-76
2022/12/11 04:11:35;;;;;;;4.47;2.10;;;;;;;12.36;90.28;96374.88;1591116;90;21576;-76
2022/12/11 04:16:55;;;;;;;5.42;1.90;;;;;;;12.45;89.80;96380.19;1594958;90;21660;-77
2022/12/11 04:24:42;;;;;;;4.85;1.60;;;;;;;12.55;90.53;96377.72;1583532;90;21122;-76
2022/12/11 04:27:09;;;;;;;4.50;1.90;;;;;;;12.59;90.66;96401.77;1595646;89;21053;-77
2022/12/11 04:29:36;;;;;;;8.33;2.95;;;;;;;12.61;90.98;96403.79;1582273;89;21122;-76
2022/12/11 04:32:04;;;;;;;9.38;4.60;;;;;;;12.56;90.72;96422.39;1597108;90;21090;-76
2022/12/11 04:34:32;;;;;;;11.18;3.90;;;;;;;12.49;91.14;96429.86;1589524;90;21206;-76
2022/12/11 04:36:59;;;;;;;9.43;3.70;;;;;;;12.42;91.25;96418.70;1592782;90;21086;-77
2022/12/11 04:39:26;;;;;;;13.40;5.25;;;;;;;12.35;91.34;96400.08;1589552;89;21081;-75
2022/12/11 04:41:54;;;;;;;13.55;6.05;;;;;;;12.28;91.40;96409.31;1597069;90;21114;-76
2022/12/11 04:44:21;;;;;;;17.35;7.17;;;;;;;12.19;91.36;96428.22;1588750;89;21126;-76
2022/12/11 04:46:49;;;;;;;10.72;5.03;;;;;;;12.08;91.91;96438.14;1558089;90;22030;-76
2022/12/11 04:49:16;;;;;;;7.17;3.67;;;;;;;12.03;92.19;96442.37;1597785;88;21563;-76
2022/12/11 04:51:44;;;;;;;11.97;5.03;;;;;;;11.91;92.22;96444.56;1594429;89;21582;-76
2022/12/11 04:54:11;;;;;;;25.92;11.05;;;;;;;11.83;92.46;96457.28;1604808;88;21061;-76
2022/12/11 04:56:39;;;;;;;36.10;15.70;;;;;;;11.71;92.51;96472.83;1601558;89;21062;-76
2022/12/11 04:59:06;;;;;;;40.40;20.15;;;;;;;11.59;92.45;96472.41;1602091;89;21118;-76
2022/12/11 05:01:33;;;;;;;27.13;13.25;;;;;;;11.46;92.61;96484.16;1601448;89;21118;-76
2022/12/11 05:04:01;;;;;;;41.70;18.42;;;;;;;11.39;92.78;96491.20;1612390;88;21089;-76
2022/12/11 05:06:28;;;;;;;21.52;9.85;;;;;;;11.30;92.96;96507.81;1590131;89;21078;-76
2022/12/11 05:08:56;;;;;;;14.73;7.12;;;;;;;11.19;93.66;96507.71;1595121;89;21113;-77
2022/12/11 05:11:23;;;;;;;16.77;7.22;;;;;;;11.06;94.69;96508.18;1593568;89;21617;-76
2022/12/11 05:13:51;;;;;;;15.05;6.83;;;;;;;10.95;95.36;96508.45;1612635;89;21114;-76
2022/12/11 05:16:18;;;;;;;15.35;7.60;;;;;;;10.94;94.79;96499.00;1599114;89;21605;-76
2022/12/11 05:18:46;;;;;;;16.85;8.90;;;;;;;10.79;95.79;96501.80;1586798;89;21074;-76
2022/12/11 05:21:15;;;;;;;20.43;8.45;;;;;;;10.69;96.51;96501.11;1614445;88;21054;-75
2022/12/11 05:23:42;;;;;;;17.42;7.78;;;;;;;10.67;95.74;96496.96;1594247;89;21097;-76
2022/12/11 05:26:15;;;;;;;15.03;7.78;;;;;;;10.62;96.14;96486.03;1582757;90;21058;-77
2022/12/11 05:28:44;;;;;;;18.15;7.70;;;;;;;10.62;96.97;96486.03;1589295;90;21086;-76
2022/12/11 05:31:16;;;;;;;12.78;7.85;;;;;;;10.62;96.22;96487.33;1589263;90;21077;-76
2022/12/11 05:33:46;;;;;;;17.57;8.30;;;;;;;10.60;96.15;96486.60;1583307;90;21550;-76
2022/12/11 05:36:21;;;;;;;19.17;7.70;;;;;;;10.55;97.22;96495.53;1584012;90;21066;-76
2022/12/11 05:38:50;;;;;;;15.28;7.58;;;;;;;10.54;96.40;96500.38;1590495;90;21063;-77
2022/12/11 05:41:21;;;;;;;20.65;6.87;;;;;;;10.49;96.78;96516.73;1583559;90;21637;-76
2022/12/11 05:43:48;;;;;;;14.23;7.92;;;;;;;10.46;98.17;96527.30;1590142;90;21106;-74
2022/12/11 05:46:22;;;;;;;20.08;6.92;;;;;;;10.41;97.96;96530.69;1584120;89;21833;-74
2022/12/11 05:48:54;;;;;;;14.85;6.47;;;;;;;10.42;97.91;96534.11;1594882;88;21101;-75
2022/12/11 05:51:22;;;;;;;14.80;6.53;;;;;;;10.37;98.38;96551.30;1620101;88;21861;-76
2022/12/11 05:53:51;;;;;;;12.82;7.00;;;;;;;10.31;100.00;96538.72;1603049;88;21613;-77
2022/12/11 05:56:28;;;;;;;13.95;6.35;;;;;;;10.28;100.00;96544.89;1616724;88;21042;-74
2022/12/11 05:58:58;;;;;;;11.70;6.12;;;;;;;10.29;100.00;96556.13;1605311;88;21097;-76
2022/12/11 06:01:30;;;;;;;12.53;6.37;;;;;;;10.27;100.00;96551.50;1623107;88;21421;-76
2022/12/11 06:03:59;;;;;;;10.33;5.47;;;;;;;10.24;100.00;96558.17;1600503;88;21053;-75
2022/12/11 06:06:27;;;;;;;11.85;4.78;;;;;;;10.24;100.00;96556.87;1597368;88;21049;-75
2022/12/11 06:08:57;;;;;;;9.10;4.42;;;;;;;10.23;100.00;96566.44;1605066;88;21069;-76
2022/12/11 06:11:27;;;;;;;6.35;3.33;;;;;;;10.24;100.00;96556.87;1617420;87;21577;-76
2022/12/11 06:13:54;;;;;;;6.35;3.05;;;;;;;10.26;100.00;96559.73;1609363;88;21037;-76
2022/12/11 06:16:23;;;;;;;4.97;2.70;;;;;;;10.27;100.00;96574.88;1613013;88;21078;-76
2022/12/11 06:18:51;;;;;;;5.22;2.83;;;;;;;10.24;100.00;96582.37;1615085;88;21034;-76
2022/12/11 06:21:30;;;;;;;5.00;2.20;;;;;;;10.25;100.00;96590.55;1610984;88;21616;-76
2022/12/11 06:24:02;;;;;;;5.00;2.08;;;;;;;10.24;100.00;96592.75;1618419;88;21006;-75
2022/12/11 06:26:30;;;;;;;3.80;1.70;;;;;;;10.25;100.00;96598.80;1601346;88;21018;-76
2022/12/11 06:28:59;;;;;;;3.40;1.65;;;;;;;10.24;100.00;96604.44;1616436;88;21023;-76
2022/12/11 06:31:26;;;;;;;2.58;1.20;;;;;;;10.26;100.00;96614.27;1598149;88;21103;-76
2022/12/11 06:33:54;;;;;;;1.82;1.17;;;;;;;10.26;100.00;96624.66;1613311;88;21105;-76
2022/12/11 06:36:23;;;;;;;4.10;1.30;;;;;;;10.26;100.00;96628.55;1599428;88;21081;-76
2022/12/11 06:38:52;;;;;;;1.32;0.98;;;;;;;10.25;100.00;96627.38;1614721;88;21638;-76
2022/12/11 06:41:19;;;;;;;1.72;1.00;;;;;;;10.25;99.25;96629.97;1602064;88;21106;-76
2022/12/11 06:43:47;;;;;;;5.78;1.35;;;;;;;10.23;98.62;96638.32;1602322;88;21050;-75
2022/12/11 06:46:18;;;;;;;1.65;1.25;;;;;;;10.22;98.39;96636.64;1599422;88;21110;-76
2022/12/11 06:48:47;;;;;;;2.37;1.05;;;;;;;10.20;97.64;96651.01;1607519;88;21652;-76
2022/12/11 06:51:18;;;;;;;1.62;0.80;;;;;;;10.20;97.38;96669.19;1603427;88;21332;-76
2022/12/11 06:53:53;;;;;;;2.30;1.10;;;;;;;10.16;96.98;96676.33;1608397;88;20975;-76
2022/12/11 06:56:22;;;;;;;0.78;0.60;;;;;;;10.18;96.90;96684.02;1605813;88;21092;-77
2022/12/11 06:58:50;;;;;;;3.42;1.02;;;;;;;10.15;95.73;96699.81;1610121;88;20986;-75
2022/12/11 07:01:24;;;;;;;0.68;0.60;;;;;;;10.10;94.12;96708.33;1608271;88;21038;-77
2022/12/11 07:03:57;;;;;;;0.68;0.60;;;;;;;10.08;92.74;96717.50;1593109;89;21069;-76
2022/12/11 07:06:27;;;;;;;2.60;1.05;;;;;;;9.92;90.55;96728.45;1601405;88;21657;-77
2022/12/11 07:08:55;;;;;;;1.20;0.50;;;;;;;9.83;88.70;96749.75;1597245;88;21050;-76
2022/12/11 07:11:23;;;;;;;1.55;1.05;;;;;;;9.78;88.96;96757.82;1612923;88;21081;-76
2022/12/11 07:13:51;;;;;;;2.15;1.37;;;;;;;9.65;87.56;96777.18;1614480;88;21352;-77
2022/12/11 07:16:18;;;;;;;0.47;0.42;;;;;;;9.56;88.89;96787.61;1616819;88;21078;-77
2022/12/11 07:18:49;;;;;;;0.53;0.53;;;;;;;9.50;88.83;96797.05;1602182;88;21081;-76
2022/12/11 07:21:18;;;;;;;0.80;0.57;;;;;;;9.42;89.04;96803.60;1619452;88;21110;-78
2022/12/11 07:23:47;;;;;;;0.50;0.50;;;;;;;9.30;87.82;96816.80;1602999;88;21101;-76
2022/12/11 07:26:18;;;;;;;2.72;0.65;;;;;;;9.16;86.62;96820.99;1622876;88;21221;-76
2022/12/11 07:28:46;;;;;;;1.57;0.70;;;;;;;9.10;86.51;96828.28;1613408;88;21057;-76
2022/12/11 07:31:19;;;;;;;3.15;0.75;;;;;;;8.98;85.77;96836.73;1623287;88;21114;-76
2022/12/11 07:33:47;;;;;;;1.03;0.70;;;;;;;8.92;86.37;96852.16;1617165;88;21058;-76
2022/12/11 07:36:15;;;;;;;2.90;0.98;;;;;;;8.80;86.50;96858.84;1601325;88;21105;-76
2022/12/11 07:38:42;;;;;;;1.52;0.80;;;;;;;8.75;85.88;96859.53;1603532;88;21081;-76
2022/12/11 07:41:13;;;;;;;1.20;0.70;;;;;;;8.65;85.97;96865.66;1622583;88;21070;-76
2022/12/11 07:43:41;;;;;;;2.87;0.80;;;;;;;8.61;84.35;96880.98;1608279;87;21058;-76
2022/12/11 07:46:16;;;;;;;1.42;0.80;;;;;;;8.47;84.71;96873.10;1615538;88;21039;-76
2022/12/11 07:48:46;;;;;;;1.45;1.00;;;;;;;8.38;84.26;96882.16;1604249;88;21148;-76
2022/12/11 07:51:18;;;;;;;0.60;0.53;;;;;;;8.32;85.26;96882.48;1603807;89;22216;-76
2022/12/11 07:53:48;;;;;;;2.05;0.57;;;;;;;8.24;83.30;96882.87;1599766;89;21126;-76
2022/12/11 07:56:17;;;;;;;1.92;0.65;;;;;;;8.24;85.17;96906.63;1566772;89;21589;-78
2022/12/11 07:58:46;;;;;;;0.85;0.65;;;;;;;8.08;83.15;96899.63;1567610;90;21085;-77
2022/12/11 08:01:24;;;;;;;1.67;0.88;;;;;;;8.03;83.65;96902.89;1544260;91;21107;-77
2022/12/11 08:03:53;;;;;;;1.40;0.93;;;;;;;7.96;82.67;96914.02;1542800;91;21095;-78
2022/12/11 08:06:28;;;;;;;1.85;0.98;;;;;;;7.92;83.66;96922.84;1545776;91;21080;-76
2022/12/11 08:08:57;;;;;;;2.58;1.02;;;;;;;7.79;81.25;96914.46;1544384;91;21631;-76
2022/12/11 08:11:26;;;;;;;2.37;1.10;;;;;;;7.84;82.22;96924.97;1541741;92;21277;-76
2022/12/11 08:13:54;;;;;;;1.17;0.72;;;;;;;7.86;83.01;96928.75;1599407;89;21586;-76
2022/12/11 08:16:22;;;;;;;1.95;0.90;;;;;;;7.89;82.40;96939.80;1593493;89;21718;-75
2022/12/11 08:18:50;;;;;;;2.15;1.00;;;;;;;7.88;80.64;96945.07;1603293;89;21570;-76
2022/12/11 08:21:22;;;;;;;3.47;0.95;;;;;;;7.84;79.54;96961.62;1579424;90;21062;-77
2022/12/11 08:23:51;;;;;;;2.30;1.32;;;;;;;7.76;76.42;96969.31;1600532;89;21094;-76
2022/12/11 08:26:23;;;;;;;2.27;1.00;;;;;;;7.86;79.12;96973.59;1582591;89;22184;-76
2022/12/11 08:28:50;;;;;;;1.37;0.70;;;;;;;7.80;79.05;96975.62;1605946;89;21103;-76
2022/12/11 08:31:19;;;;;;;0.88;0.65;;;;;;;7.80;77.29;96979.50;1594936;89;21653;-76
2022/12/11 08:33:48;;;;;;;1.50;0.85;;;;;;;7.85;76.51;96984.01;1606706;89;21576;-75
2022/12/11 08:36:20;;;;;;;2.33;1.17;;;;;;;7.87;76.69;96993.83;1600003;89;21062;-76
2022/12/11 08:38:48;;;;;;;0.60;0.57;;;;;;;7.86;76.30;97014.13;1604526;89;21146;-76
2022/12/11 08:41:23;;;;;;;3.05;1.47;;;;;;;7.92;76.02;97010.81;1597515;89;21027;-77
2022/12/11 08:43:53;;;;;;;0.47;0.47;;;;;;;7.95;76.40;97014.53;1590479;89;21054;-77
2022/12/11 08:46:25;;;;;;;3.12;0.80;;;;;;;8.06;74.26;97030.02;1591011;89;21585;-76
2022/12/11 08:48:55;;;;;;;1.65;1.20;;;;;;;8.14;74.56;97041.67;1599551;88;21126;-76
2022/12/11 08:51:25;;;;;;;2.15;1.12;;;;;;;8.08;71.91;97051.03;1618884;88;21070;-76
2022/12/11 08:53:59;;;;;;;6.10;1.77;;;;;;;8.20;73.58;97046.16;1608766;88;21066;-76
2022/12/11 08:56:27;;;;;;;6.50;3.00;;;;;;;8.17;72.49;97043.27;1617408;88;21046;-76
2022/12/11 08:58:55;;;;;;;3.17;1.22;;;;;;;8.07;71.33;97054.52;1608100;88;21528;-76
2022/12/11 09:01:26;;;;;;;1.52;0.93;;;;;;;8.11;72.33;97057.34;1620462;88;21022;-76
2022/12/11 09:03:56;;;;;;;2.45;1.20;;;;;;;8.03;70.22;97069.80;1598369;88;21157;-76
2022/12/11 09:06:27;;;;;;;6.35;1.90;;;;;;;7.91;71.96;97092.38;1614464;88;21571;-77
2022/12/11 09:08:58;;;;;;;7.62;3.02;;;;;;;7.80;69.42;97090.73;1600031;88;21018;-77
2022/12/11 09:11:32;;;;;;;2.80;1.15;;;;;;;7.67;70.02;97102.10;1614520;88;21046;-78
2022/12/11 09:14:01;;;;;;;4.67;2.12;;;;;;;7.69;70.30;97117.92;1603033;88;21871;-77
2022/12/11 09:16:29;;;;;;;2.15;1.02;;;;;;;7.60;69.50;97105.43;1613754;88;21665;-78
2022/12/11 09:18:58;;;;;;;0.78;0.70;;;;;;;7.60;67.87;97130.43;1607860;88;21018;-78
2022/12/11 09:21:29;;;;;;;0.88;0.80;;;;;;;7.63;69.78;97141.48;1602085;88;21058;-76
2022/12/11 09:23:59;;;;;;;2.47;0.90;;;;;;;7.53;69.30;97123.41;1611360;88;21499;-77
2022/12/11 09:26:29;;;;;;;1.22;1.00;;;;;;;7.55;70.15;97123.72;1601386;88;21034;-77
2022/12/11 09:28:57;;;;;;;4.92;1.82;;;;;;;7.51;69.12;97129.10;1607633;88;21542;-78
2022/12/11 09:31:31;;;;;;;8.60;2.92;;;;;;;7.52;69.32;97116.11;1617791;88;21094;-78
2022/12/11 09:34:06;;;;;;;13.95;5.08;;;;;;;7.44;69.21;97112.16;1620987;88;21010;-78
2022/12/11 09:36:34;;;;;;;1.60;1.15;;;;;;;7.43;70.05;97128.60;1610582;88;20982;-78
2022/12/11 09:39:05;;;;;;;1.07;0.80;;;;;;;7.40;70.62;97110.63;1614751;88;21122;-78
2022/12/11 09:42:24;;;;;;;5.05;1.60;;;;;;;7.42;70.73;97115.27;1608699;88;22276;-78
2022/12/11 09:44:56;;;;;;;2.55;1.25;;;;;;;7.43;69.04;97113.09;1605061;88;21069;-77
2022/12/11 09:47:31;;;;;;;1.17;0.70;;;;;;;7.39;68.71;97129.64;1593846;88;21042;-78
2022/12/11 09:50:08;;;;;;;0.72;0.60;;;;;;;7.41;68.10;97131.71;1600858;88;21078;-78
2022/12/11 09:53:08;;;;;;;1.65;0.90;;;;;;;7.38;67.65;97137.83;1611704;88;21144;-78
2022/12/11 09:55:55;;;;;;;1.52;0.93;;;;;;;7.37;67.57;97147.34;1606070;88;21065;-78
2022/12/11 09:59:10;;;;;;;1.85;0.75;;;;;;;7.37;69.02;97158.97;1591040;88;21086;-78
2022/12/11 10:02:14;;;;;;;0.80;0.78;;;;;;;7.48;69.36;97177.05;1576588;88;21569;-78
2022/12/11 10:05:05;;;;;;;2.50;0.75;;;;;;;7.44;69.06;97193.17;1605659;88;21085;-78
2022/12/11 10:07:59;;;;;;;2.65;0.90;;;;;;;7.46;69.95;97202.14;1608766;88;21053;-78
2022/12/11 10:10:56;;;;;;;0.98;0.85;;;;;;;7.45;69.38;97225.03;1616178;88;21084;-77
2022/12/11 10:13:55;;;;;;;1.70;1.00;;;;;;;7.49;70.12;97220.95;1552410;92;21578;-78
2022/12/11 10:16:45;;;;;;;2.67;0.85;;;;;;;7.56;69.77;97233.19;1610417;88;21160;-77
2022/12/11 10:19:27;;;;;;;2.50;0.95;;;;;;;7.69;69.37;97206.33;1608193;88;21089;-78
2022/12/11 10:21:55;;;;;;;1.47;0.90;;;;;;;7.62;68.19;97219.13;1606536;88;21082;-77
2022/12/11 10:24:38;;;;;;;4.75;1.80;;;;;;;7.66;68.43;97218.95;1609939;88;21098;-78
2022/12/11 10:27:13;;;;;;;2.37;1.50;;;;;;;7.62;68.11;97201.89;1607590;88;21126;-78
2022/12/11 10:29:41;;;;;;;9.05;1.50;;;;;;;7.52;68.28;97214.80;1611428;88;21062;-78
2022/12/11 10:32:16;;;;;;;1.62;0.95;;;;;;;7.45;68.15;97215.52;1622951;88;21077;-78
2022/12/11 10:34:47;;;;;;;1.22;0.80;;;;;;;7.43;68.07;97205.70;1622485;88;21030;-78
2022/12/11 10:37:15;;;;;;;2.70;1.52;;;;;;;7.43;67.78;97197.12;1610685;88;21109;-79
2022/12/11 10:39:42;;;;;;;1.85;1.20;;;;;;;7.36;67.16;97219.78;1605643;88;21042;-76
2022/12/11 10:42:18;;;;;;;2.10;1.02;;;;;;;7.43;67.75;97202.28;1596947;89;21133;-79
2022/12/11 10:44:59;;;;;;;2.58;0.80;;;;;;;7.37;66.70;97221.02;1601530;88;21086;-76
2022/12/11 10:47:28;;;;;;;1.10;0.65;;;;;;;7.39;66.90;97204.61;1613574;88;21022;-76
2022/12/11 10:50:01;;;;;;;0.72;0.72;;;;;;;7.43;66.85;97212.16;1611435;88;21086;-78
2022/12/11 10:52:37;;;;;;;;;;;;;;;7.46;66.98;97200.41;1599262;90;21030;-78
2022/12/11 10:55:24;;;;;;;0.60;0.47;;;;;;;7.53;66.39;97197.94;1613925;88;20153;-78
2022/12/11 10:58:02;;;;;;;0.55;0.55;;;;;;;7.46;66.89;97195.67;1606883;88;21042;-76
2022/12/11 11:00:40;;;;;;;1.40;0.70;;;;;;;7.58;66.99;97193.88;1595708;88;21038;-76
2022/12/11 11:03:26;;;;;;;7.97;3.00;;;;;;;7.59;66.87;97203.76;1615506;88;20990;-76
2022/12/11 11:06:18;;;;;;;6.30;1.92;;;;;;;7.58;66.90;97213.27;1600133;88;20995;-76
2022/12/11 11:08:50;;;;;;;1.30;0.75;;;;;;;7.44;66.11;97222.91;1615839;88;21050;-76
2022/12/11 11:11:33;;;;;;;1.00;0.55;;;;;;;7.46;67.44;97216.36;1613171;88;20994;-78
2022/12/11 11:14:08;;;;;;;;;;;;;;;7.42;67.40;97213.52;1614390;88;21044;-78
2022/12/11 11:16:40;;;;;;;7.42;2.02;;;;;;;7.45;67.09;97205.19;1612562;88;20125;-77
2022/12/11 11:19:24;;;;;;;2.75;0.78;;;;;;;7.49;67.36;97196.84;1615801;88;21014;-76
2022/12/11 11:22:00;;;;;;;1.42;0.85;;;;;;;7.47;66.63;97198.66;1599417;88;21082;-75
2022/12/11 11:24:39;;;;;;;0.88;0.70;;;;;;;7.39;65.95;97208.03;1612659;88;21019;-76
2022/12/11 11:27:35;;;;;;;0.50;0.40;;;;;;;7.39;65.76;97216.25;1600650;88;21173;-77
2022/12/11 11:30:21;;;;;;;0.50;0.50;;;;;;;7.46;66.47;97221.10;1608408;88;21061;-77
2022/12/11 11:33:03;;;;;;;0.85;0.60;;;;;;;7.51;64.00;97234.66;1602089;88;22107;-75
2022/12/11 11:35:31;;;;;;;1.92;0.90;;;;;;;7.53;64.05;97239.77;1608133;88;20967;-76
2022/12/11 11:38:10;;;;;;;1.15;0.72;;;;;;;7.55;64.46;97253.47;1609573;88;21106;-76
2022/12/11 11:40:55;;;;;;;1.10;0.62;;;;;;;7.65;65.17;97247.00;1610018;88;21026;-76
2022/12/11 11:43:46;;;;;;;0.40;0.40;;;;;;;7.72;64.79;97257.94;1606064;88;22183;-78
2022/12/11 11:46:30;;;;;;;0.50;0.50;;;;;;;7.71;62.07;97260.95;1600564;88;21128;-76
2022/12/11 11:49:06;;;;;;;0.53;0.50;;;;;;;7.75;63.29;97274.61;1611348;88;21983;-78
2022/12/11 11:51:42;;;;;;;3.12;0.82;;;;;;;8.25;63.81;97265.07;1592615;88;21587;-79
2022/12/11 11:54:49;;;;;;;1.47;0.57;;;;;;;8.30;61.07;97260.54;1602182;89;21094;-76
2022/12/11 11:57:41;;;;;;;1.00;0.70;;;;;;;8.20;61.36;97257.98;1599508;89;21451;-78
2022/12/11 12:00:20;;;;;;;0.85;0.70;;;;;;;8.09;61.42;97272.67;1596513;89;21606;-78
2022/12/11 12:02:53;;;;;;;0.82;0.55;;;;;;;8.14;61.82;97279.80;1600532;89;21197;-77
2022/12/11 12:05:36;;;;;;;1.65;0.88;;;;;;;8.19;61.68;97273.58;1607040;89;21063;-78
2022/12/11 12:08:43;;;;;;;5.33;1.50;;;;;;;7.90;62.28;97292.53;1590649;89;21062;-76
2022/12/11 12:11:37;;;;;;;25.75;8.38;;;;;;;7.90;62.28;97292.53;1653079;86;21560;-76